Flight Track Log - Related Links

Times and Time Zones

All times are in EDT time to prevent confusion due to time zone crossing. See the CTL14 flight status page for this flight to view local times or setup timezone preferences in your user account.

Time Position Orientation Groundspeed Altitude Reporting Facility
EDT Latitude Longitude Course Direction KTS MPH feet Rate Location/Type
Wed 09:14:48 PM 39.2833 -85.9000 360° North 115 132 1,200  Level Indianapolis TRACON
Wed 09:15:12 PM 39.2833 -85.9000 360° North 118 136 1,700 1,214 Climbing Indianapolis TRACON
Wed 09:16:12 PM 39.3333 -85.9167 346° North 129 148 2,900 1,096 Climbing Indianapolis TRACON
Wed 09:17:07 PM 39.3594 -85.9186 357° North 127 146 3,800 569 Climbing Indianapolis Center
Wed 09:18:08 PM 39.3997 -85.9342 343° North 144 166 4,000 49 Climbing Indianapolis Center
Wed 09:19:09 PM 39.4317 -85.9756 315° West 158 182 3,900  Descending Indianapolis Center
Wed 09:20:11 PM 39.4444 -86.0300 287° West 162 186 4,000  Climbing Indianapolis Center
Wed 09:21:12 PM 39.4511 -86.0861 279° West 159 183 3,900 -49 Descending Indianapolis Center
Wed 09:22:13 PM 39.4603 -86.1436 282° West 160 184 3,900 32 Level Indianapolis Center
Wed 09:24:18 PM 39.4833 -86.2667 284° West 160 184 4,000  Climbing Indianapolis TRACON
Wed 09:25:17 PM 39.4853 -86.3144 273° West 160 184 3,900 -50 Descending Indianapolis Center
Wed 09:26:18 PM 39.4925 -86.3719 279° West 160 184 3,900 49 Level Indianapolis Center
Wed 09:27:19 PM 39.5086 -86.4256 291° West 161 185 4,000  Climbing Indianapolis Center
Wed 09:28:21 PM 39.5303 -86.4772 299° West 162 186 3,900 -49 Descending Indianapolis Center
Wed 09:29:22 PM 39.5506 -86.5297 297° West 161 185 3,900 49 Level Indianapolis Center
Wed 09:30:23 PM 39.5714 -86.5819 297° West 161 185 4,000  Climbing Indianapolis Center
Wed 09:31:25 PM 39.5958 -86.6417 298° West 160 184 3,900 -49 Descending Indianapolis Center
Wed 09:32:26 PM 39.6175 -86.6936 298° West 161 185 3,900 49 Level Indianapolis Center
Wed 09:33:27 PM 39.6386 -86.7453 298° West 161 185 4,000  Climbing Indianapolis Center
Wed 09:34:29 PM 39.6592 -86.7969 297° West 161 185 3,900 -49 Descending Indianapolis Center
Wed 09:35:30 PM 39.6797 -86.8492 297° West 161 185 3,900  Level Indianapolis Center
Wed 09:36:31 PM 39.7006 -86.9019 297° West 162 186 3,900  Level Indianapolis Center
Wed 09:37:33 PM 39.7217 -86.9531 298° West 161 185 3,900 49 Level Indianapolis Center
Wed 09:38:34 PM 39.7419 -87.0056 297° West 161 185 4,000 49 Climbing Indianapolis Center
Wed 09:39:35 PM 39.7633 -87.0578 298° West 161 185 4,000  Level Indianapolis Center
Wed 09:40:37 PM 39.7847 -87.1094 298° West 161 185 4,000  Level Indianapolis Center
Wed 09:41:38 PM 39.8056 -87.1611 298° West 161 185 4,000  Level Indianapolis Center
Wed 09:42:40 PM 39.8258 -87.2139 297° West 162 186 4,000  Level Indianapolis Center
Wed 09:43:41 PM 39.8492 -87.2750 296° West 161 185 4,000  Level Indianapolis Center
Wed 09:44:42 PM 39.8708 -87.3264 299° West 161 185 4,000 -30 Level Indianapolis Center
Wed 09:47:01 PM 39.9158 -87.4403 297° West 161 185 3,900 -30 Descending Chicago Center
Wed 09:48:03 PM 39.9361 -87.4936 296° West 162 186 3,900 49 Level Chicago Center
Wed 09:49:04 PM 39.9614 -87.5550 298° West 163 188 4,000 73 Climbing Chicago Center
Wed 09:49:25 PM 39.9678 -87.5717 297° West 163 188 4,000  Level Indianapolis Center
Wed 09:50:26 PM 39.9872 -87.6203 298° West 162 186 4,000 -30 Level Indianapolis Center
Wed 09:52:00 PM 40.0168 -87.6976 297° West  Level FlightAware Approximate
Wed 09:52:46 PM 40.0342 -87.7419 297° West 171 197 3,900  Level Chicago Center
Wed 09:53:48 PM 40.0558 -87.7908 300° West 155 178 3,900 49 Level Chicago Center
Wed 09:54:49 PM 40.0758 -87.8433 296° West 161 185 4,000 49 Climbing Chicago Center
Wed 09:55:50 PM 40.0967 -87.8994 296° West 160 184 4,000  Level Chicago Center
Wed 09:56:52 PM 40.1206 -87.9569 299° West 161 185 4,000 -49 Level Chicago Center
Wed 09:57:53 PM 40.1400 -88.0094 296° West 160 184 3,900  Descending Chicago Center
Wed 09:58:55 PM 40.1614 -88.0622 298° West 162 186 4,000 49 Climbing Chicago Center
Wed 09:59:56 PM 40.1814 -88.1147 297° West 163 188 4,000 -49 Level Chicago Center
Wed 10:00:57 PM 40.2003 -88.1661 296° West 161 185 3,900  Descending Chicago Center
Wed 10:01:59 PM 40.2203 -88.2192 296° West 161 185 4,000 49 Climbing Chicago Center
Wed 10:03:00 PM 40.2389 -88.2728 294° West 161 185 4,000 49 Level Chicago Center
Wed 10:04:02 PM 40.2586 -88.3242 297° West 161 185 4,100 49 Climbing Chicago Center
Wed 10:05:03 PM 40.2825 -88.3875 296° West 162 186 4,100 -49 Level Chicago Center
Wed 10:06:04 PM 40.3022 -88.4389 297° West 160 184 4,000  Descending Chicago Center
Wed 10:07:06 PM 40.3219 -88.4919 296° West 160 184 4,100  Climbing Chicago Center
Wed 10:08:07 PM 40.3386 -88.5381 295° West 160 184 4,000 -146 Descending Chicago Center
Wed 10:09:09 PM 40.3622 -88.6000 297° West 159 183 3,800 -244 Descending Chicago Center
Wed 10:10:10 PM 40.3842 -88.6506 300° West 159 183 3,500 -295 Descending Chicago Center
Wed 10:11:11 PM 40.4056 -88.7008 299° West 158 182 3,200 -341 Descending Chicago Center
Wed 10:12:13 PM 40.4269 -88.7522 299° West 159 183 2,800 -439 Descending Chicago Center
Wed 10:13:14 PM 40.4456 -88.8044 295° West 158 182 2,300 -585 Descending Chicago Center
Wed 10:14:16 PM 40.4619 -88.8517 295° West 152 175 1,600 -488 Descending Chicago Center
Wed 10:15:17 PM 40.4758 -88.9031 290° West 144 166 1,300 -295 Descending Chicago Center
Wed 10:17:00 PM 40.4771 -88.9159 277° West  Level Estimated
Wed 10:24:00 PM 40.4771 -88.9159 66° East  Level Estimated
Wed 10:25:00 PM 40.4771 -88.9159 66° East  Level Estimated

Login

Don't have an account? Register now (free) for customized features, flight alerts, and more!